sensor_id;sensor_type;location;lat;lon;timestamp;P1;durP1;ratioP1;P2;durP2;ratioP2
38358;SDS011;42072;48.044;14.416;2023-03-14T00:00:14;30.42;;;17.20;;
38358;SDS011;42072;48.044;14.416;2023-03-14T00:02:41;31.70;;;16.20;;
38358;SDS011;42072;48.044;14.416;2023-03-14T00:05:09;26.63;;;14.88;;
38358;SDS011;42072;48.044;14.416;2023-03-14T00:07:37;31.80;;;16.75;;
38358;SDS011;42072;48.044;14.416;2023-03-14T00:10:07;25.73;;;14.43;;
38358;SDS011;42072;48.044;14.416;2023-03-14T00:12:37;26.77;;;14.98;;
38358;SDS011;42072;48.044;14.416;2023-03-14T00:15:05;28.63;;;14.93;;
38358;SDS011;42072;48.044;14.416;2023-03-14T00:17:33;23.08;;;14.05;;
38358;SDS011;42072;48.044;14.416;2023-03-14T00:20:02;23.00;;;13.40;;
38358;SDS011;42072;48.044;14.416;2023-03-14T00:22:31;27.20;;;14.50;;
38358;SDS011;42072;48.044;14.416;2023-03-14T00:24:59;24.50;;;13.35;;
38358;SDS011;42072;48.044;14.416;2023-03-14T00:27:26;24.70;;;14.35;;
38358;SDS011;42072;48.044;14.416;2023-03-14T00:29:53;26.83;;;13.05;;
38358;SDS011;42072;48.044;14.416;2023-03-14T00:32:20;20.27;;;13.32;;
38358;SDS011;42072;48.044;14.416;2023-03-14T00:34:48;20.33;;;13.10;;
38358;SDS011;42072;48.044;14.416;2023-03-14T00:37:15;24.10;;;13.63;;
38358;SDS011;42072;48.044;14.416;2023-03-14T00:39:42;23.00;;;12.85;;
38358;SDS011;42072;48.044;14.416;2023-03-14T00:42:09;22.67;;;13.93;;
38358;SDS011;42072;48.044;14.416;2023-03-14T00:44:37;28.25;;;13.75;;
38358;SDS011;42072;48.044;14.416;2023-03-14T00:47:04;26.52;;;13.77;;
38358;SDS011;42072;48.044;14.416;2023-03-14T00:49:31;29.25;;;14.00;;
38358;SDS011;42072;48.044;14.416;2023-03-14T00:51:58;15.45;;;9.35;;
38358;SDS011;42072;48.044;14.416;2023-03-14T00:54:26;18.17;;;11.27;;
38358;SDS011;42072;48.044;14.416;2023-03-14T00:56:53;21.75;;;11.90;;
38358;SDS011;42072;48.044;14.416;2023-03-14T00:59:20;26.52;;;12.63;;
38358;SDS011;42072;48.044;14.416;2023-03-14T01:01:48;17.95;;;11.50;;
38358;SDS011;42072;48.044;14.416;2023-03-14T01:04:15;17.45;;;10.50;;
38358;SDS011;42072;48.044;14.416;2023-03-14T01:06:42;18.60;;;11.65;;
38358;SDS011;42072;48.044;14.416;2023-03-14T01:09:09;20.08;;;11.20;;
38358;SDS011;42072;48.044;14.416;2023-03-14T01:11:37;24.33;;;11.88;;
38358;SDS011;42072;48.044;14.416;2023-03-14T01:14:04;17.13;;;10.82;;
38358;SDS011;42072;48.044;14.416;2023-03-14T01:16:32;15.65;;;10.68;;
38358;SDS011;42072;48.044;14.416;2023-03-14T01:19:01;19.27;;;11.25;;
38358;SDS011;42072;48.044;14.416;2023-03-14T01:21:30;16.05;;;9.77;;
38358;SDS011;42072;48.044;14.416;2023-03-14T01:23:59;16.48;;;10.32;;
38358;SDS011;42072;48.044;14.416;2023-03-14T01:26:29;15.93;;;9.80;;
38358;SDS011;42072;48.044;14.416;2023-03-14T01:28:57;14.05;;;10.18;;
38358;SDS011;42072;48.044;14.416;2023-03-14T01:31:25;14.93;;;9.98;;
38358;SDS011;42072;48.044;14.416;2023-03-14T01:33:53;18.23;;;10.10;;
38358;SDS011;42072;48.044;14.416;2023-03-14T01:36:20;13.15;;;8.77;;
38358;SDS011;42072;48.044;14.416;2023-03-14T01:38:48;10.93;;;7.20;;
38358;SDS011;42072;48.044;14.416;2023-03-14T01:41:17;9.90;;;6.78;;
38358;SDS011;42072;48.044;14.416;2023-03-14T01:43:47;9.15;;;6.35;;
38358;SDS011;42072;48.044;14.416;2023-03-14T01:46:32;11.43;;;5.90;;
38358;SDS011;42072;48.044;14.416;2023-03-14T01:56:56;9.80;;;5.78;;
38358;SDS011;42072;48.044;14.416;2023-03-14T01:59:29;10.10;;;6.20;;
38358;SDS011;42072;48.044;14.416;2023-03-14T02:01:58;7.78;;;5.55;;
38358;SDS011;42072;48.044;14.416;2023-03-14T02:04:27;13.15;;;6.70;;
38358;SDS011;42072;48.044;14.416;2023-03-14T02:07:00;10.93;;;6.78;;
38358;SDS011;42072;48.044;14.416;2023-03-14T02:09:44;12.00;;;7.20;;
38358;SDS011;42072;48.044;14.416;2023-03-14T02:12:12;10.27;;;6.05;;
38358;SDS011;42072;48.044;14.416;2023-03-14T02:14:42;12.05;;;5.35;;
38358;SDS011;42072;48.044;14.416;2023-03-14T02:17:15;10.85;;;5.32;;
38358;SDS011;42072;48.044;14.416;2023-03-14T02:22:14;9.27;;;5.47;;
38358;SDS011;42072;48.044;14.416;2023-03-14T02:27:38;13.45;;;7.30;;
38358;SDS011;42072;48.044;14.416;2023-03-14T02:30:08;8.98;;;5.35;;
38358;SDS011;42072;48.044;14.416;2023-03-14T02:32:40;18.42;;;8.52;;
38358;SDS011;42072;48.044;14.416;2023-03-14T02:35:11;11.60;;;5.78;;
38358;SDS011;42072;48.044;14.416;2023-03-14T02:37:42;16.10;;;8.00;;
38358;SDS011;42072;48.044;14.416;2023-03-14T02:40:23;14.63;;;6.32;;
38358;SDS011;42072;48.044;14.416;2023-03-14T02:42:50;12.18;;;5.78;;
38358;SDS011;42072;48.044;14.416;2023-03-14T02:47:46;7.40;;;3.90;;
38358;SDS011;42072;48.044;14.416;2023-03-14T02:50:19;6.75;;;3.25;;
38358;SDS011;42072;48.044;14.416;2023-03-14T02:52:49;11.05;;;6.03;;
38358;SDS011;42072;48.044;14.416;2023-03-14T02:55:20;9.38;;;5.68;;
38358;SDS011;42072;48.044;14.416;2023-03-14T02:57:47;8.82;;;4.70;;
38358;SDS011;42072;48.044;14.416;2023-03-14T03:00:15;4.35;;;2.60;;
38358;SDS011;42072;48.044;14.416;2023-03-14T03:02:42;5.20;;;2.95;;
38358;SDS011;42072;48.044;14.416;2023-03-14T03:05:09;7.63;;;4.85;;
38358;SDS011;42072;48.044;14.416;2023-03-14T03:07:36;8.43;;;5.13;;
38358;SDS011;42072;48.044;14.416;2023-03-14T03:10:04;6.15;;;4.13;;
38358;SDS011;42072;48.044;14.416;2023-03-14T03:12:31;7.97;;;3.83;;
38358;SDS011;42072;48.044;14.416;2023-03-14T03:14:59;3.60;;;2.50;;
38358;SDS011;42072;48.044;14.416;2023-03-14T03:17:26;4.30;;;2.55;;
38358;SDS011;42072;48.044;14.416;2023-03-14T03:19:53;4.60;;;2.58;;
38358;SDS011;42072;48.044;14.416;2023-03-14T03:22:20;2.90;;;2.30;;
38358;SDS011;42072;48.044;14.416;2023-03-14T03:24:48;3.78;;;2.80;;
38358;SDS011;42072;48.044;14.416;2023-03-14T03:27:15;4.32;;;3.13;;
38358;SDS011;42072;48.044;14.416;2023-03-14T03:29:42;4.75;;;3.08;;
38358;SDS011;42072;48.044;14.416;2023-03-14T03:32:10;5.75;;;3.53;;
38358;SDS011;42072;48.044;14.416;2023-03-14T03:34:37;4.93;;;3.20;;
38358;SDS011;42072;48.044;14.416;2023-03-14T03:37:04;3.53;;;2.60;;
38358;SDS011;42072;48.044;14.416;2023-03-14T03:39:31;8.63;;;2.92;;
38358;SDS011;42072;48.044;14.416;2023-03-14T03:41:58;5.47;;;3.10;;
38358;SDS011;42072;48.044;14.416;2023-03-14T03:44:25;5.85;;;3.70;;
38358;SDS011;42072;48.044;14.416;2023-03-14T03:46:53;3.20;;;2.05;;
38358;SDS011;42072;48.044;14.416;2023-03-14T03:49:20;5.50;;;3.50;;
38358;SDS011;42072;48.044;14.416;2023-03-14T03:51:47;4.35;;;3.33;;
38358;SDS011;42072;48.044;14.416;2023-03-14T03:54:14;5.05;;;3.00;;
38358;SDS011;42072;48.044;14.416;2023-03-14T03:56:41;5.18;;;3.53;;
38358;SDS011;42072;48.044;14.416;2023-03-14T03:59:08;6.00;;;3.15;;
38358;SDS011;42072;48.044;14.416;2023-03-14T04:01:36;5.70;;;3.20;;
38358;SDS011;42072;48.044;14.416;2023-03-14T04:04:03;7.25;;;3.78;;
38358;SDS011;42072;48.044;14.416;2023-03-14T04:06:30;5.55;;;3.33;;
38358;SDS011;42072;48.044;14.416;2023-03-14T04:08:58;6.22;;;3.25;;
38358;SDS011;42072;48.044;14.416;2023-03-14T04:11:25;4.97;;;3.40;;
38358;SDS011;42072;48.044;14.416;2023-03-14T04:13:52;4.72;;;3.40;;
38358;SDS011;42072;48.044;14.416;2023-03-14T04:16:21;4.22;;;2.83;;
38358;SDS011;42072;48.044;14.416;2023-03-14T04:18:50;5.43;;;3.17;;
38358;SDS011;42072;48.044;14.416;2023-03-14T04:21:17;5.32;;;3.15;;
38358;SDS011;42072;48.044;14.416;2023-03-14T04:23:45;5.13;;;2.97;;
38358;SDS011;42072;48.044;14.416;2023-03-14T04:26:12;6.15;;;2.97;;
38358;SDS011;42072;48.044;14.416;2023-03-14T04:28:39;6.38;;;3.35;;
38358;SDS011;42072;48.044;14.416;2023-03-14T04:31:10;5.47;;;3.40;;
38358;SDS011;42072;48.044;14.416;2023-03-14T04:33:42;8.63;;;4.00;;
38358;SDS011;42072;48.044;14.416;2023-03-14T04:36:11;8.85;;;3.75;;
38358;SDS011;42072;48.044;14.416;2023-03-14T04:38:39;4.50;;;2.60;;
38358;SDS011;42072;48.044;14.416;2023-03-14T04:41:06;5.78;;;3.58;;
38358;SDS011;42072;48.044;14.416;2023-03-14T04:43:33;6.38;;;3.85;;
38358;SDS011;42072;48.044;14.416;2023-03-14T04:46:01;4.35;;;2.85;;
38358;SDS011;42072;48.044;14.416;2023-03-14T04:48:28;3.28;;;1.95;;
38358;SDS011;42072;48.044;14.416;2023-03-14T04:50:55;2.72;;;1.88;;
38358;SDS011;42072;48.044;14.416;2023-03-14T04:53:22;1.10;;;0.90;;
38358;SDS011;42072;48.044;14.416;2023-03-14T04:55:53;1.08;;;0.98;;
38358;SDS011;42072;48.044;14.416;2023-03-14T04:58:22;1.23;;;0.98;;
38358;SDS011;42072;48.044;14.416;2023-03-14T05:00:50;2.75;;;0.82;;
38358;SDS011;42072;48.044;14.416;2023-03-14T05:03:18;1.00;;;0.80;;
38358;SDS011;42072;48.044;14.416;2023-03-14T05:05:45;1.38;;;0.70;;
38358;SDS011;42072;48.044;14.416;2023-03-14T05:08:13;1.45;;;0.98;;
38358;SDS011;42072;48.044;14.416;2023-03-14T05:10:40;3.95;;;2.08;;
38358;SDS011;42072;48.044;14.416;2023-03-14T05:13:07;3.63;;;1.90;;
38358;SDS011;42072;48.044;14.416;2023-03-14T05:15:34;4.03;;;1.85;;
38358;SDS011;42072;48.044;14.416;2023-03-14T05:18:02;9.68;;;4.47;;
38358;SDS011;42072;48.044;14.416;2023-03-14T05:20:30;8.77;;;4.47;;
38358;SDS011;42072;48.044;14.416;2023-03-14T05:22:57;2.22;;;1.42;;
38358;SDS011;42072;48.044;14.416;2023-03-14T05:25:24;4.70;;;2.17;;
38358;SDS011;42072;48.044;14.416;2023-03-14T05:27:53;4.70;;;1.98;;
38358;SDS011;42072;48.044;14.416;2023-03-14T05:30:21;2.78;;;1.45;;
38358;SDS011;42072;48.044;14.416;2023-03-14T05:32:49;1.83;;;1.35;;
38358;SDS011;42072;48.044;14.416;2023-03-14T05:35:16;2.03;;;1.40;;
38358;SDS011;42072;48.044;14.416;2023-03-14T05:37:43;1.70;;;1.30;;
38358;SDS011;42072;48.044;14.416;2023-03-14T05:40:11;1.75;;;1.40;;
38358;SDS011;42072;48.044;14.416;2023-03-14T05:42:38;2.15;;;1.40;;
38358;SDS011;42072;48.044;14.416;2023-03-14T05:45:05;2.40;;;1.38;;
38358;SDS011;42072;48.044;14.416;2023-03-14T05:47:33;1.77;;;1.30;;
38358;SDS011;42072;48.044;14.416;2023-03-14T05:50:00;4.63;;;1.58;;
38358;SDS011;42072;48.044;14.416;2023-03-14T05:52:27;1.60;;;1.30;;
38358;SDS011;42072;48.044;14.416;2023-03-14T05:54:54;2.17;;;1.73;;
38358;SDS011;42072;48.044;14.416;2023-03-14T05:57:21;2.35;;;2.00;;
38358;SDS011;42072;48.044;14.416;2023-03-14T05:59:48;2.88;;;2.40;;
38358;SDS011;42072;48.044;14.416;2023-03-14T06:02:16;5.68;;;2.50;;
38358;SDS011;42072;48.044;14.416;2023-03-14T06:04:43;4.00;;;2.20;;
38358;SDS011;42072;48.044;14.416;2023-03-14T06:07:10;2.40;;;2.00;;
38358;SDS011;42072;48.044;14.416;2023-03-14T06:09:37;2.45;;;2.03;;
38358;SDS011;42072;48.044;14.416;2023-03-14T06:12:06;3.17;;;1.92;;
38358;SDS011;42072;48.044;14.416;2023-03-14T06:14:33;3.17;;;1.80;;
38358;SDS011;42072;48.044;14.416;2023-03-14T06:17:00;2.05;;;1.40;;
38358;SDS011;42072;48.044;14.416;2023-03-14T06:19:27;1.42;;;1.25;;
38358;SDS011;42072;48.044;14.416;2023-03-14T06:21:55;1.20;;;0.90;;
38358;SDS011;42072;48.044;14.416;2023-03-14T06:24:22;2.50;;;1.27;;
38358;SDS011;42072;48.044;14.416;2023-03-14T06:26:49;1.17;;;1.05;;
38358;SDS011;42072;48.044;14.416;2023-03-14T06:29:16;2.22;;;1.48;;
38358;SDS011;42072;48.044;14.416;2023-03-14T06:31:43;1.80;;;1.17;;
38358;SDS011;42072;48.044;14.416;2023-03-14T06:34:11;2.40;;;1.10;;
38358;SDS011;42072;48.044;14.416;2023-03-14T06:36:38;2.70;;;1.60;;
38358;SDS011;42072;48.044;14.416;2023-03-14T06:39:05;4.65;;;2.30;;
38358;SDS011;42072;48.044;14.416;2023-03-14T06:41:32;4.53;;;2.30;;
38358;SDS011;42072;48.044;14.416;2023-03-14T06:43:59;2.30;;;1.65;;
38358;SDS011;42072;48.044;14.416;2023-03-14T06:46:27;3.22;;;1.10;;
38358;SDS011;42072;48.044;14.416;2023-03-14T06:48:54;1.73;;;1.50;;
38358;SDS011;42072;48.044;14.416;2023-03-14T06:51:21;4.25;;;1.67;;
38358;SDS011;42072;48.044;14.416;2023-03-14T06:53:49;1.85;;;1.33;;
38358;SDS011;42072;48.044;14.416;2023-03-14T06:56:16;1.50;;;1.10;;
38358;SDS011;42072;48.044;14.416;2023-03-14T06:58:43;1.35;;;0.98;;
38358;SDS011;42072;48.044;14.416;2023-03-14T07:01:19;1.60;;;1.17;;
38358;SDS011;42072;48.044;14.416;2023-03-14T07:03:49;1.40;;;1.08;;
38358;SDS011;42072;48.044;14.416;2023-03-14T07:06:17;1.98;;;1.45;;
38358;SDS011;42072;48.044;14.416;2023-03-14T07:08:44;1.30;;;1.00;;
38358;SDS011;42072;48.044;14.416;2023-03-14T07:11:11;3.78;;;1.60;;
38358;SDS011;42072;48.044;14.416;2023-03-14T07:13:38;1.80;;;1.30;;
38358;SDS011;42072;48.044;14.416;2023-03-14T07:16:06;0.60;;;0.60;;
38358;SDS011;42072;48.044;14.416;2023-03-14T07:18:34;3.15;;;0.80;;
38358;SDS011;42072;48.044;14.416;2023-03-14T07:21:02;0.80;;;0.80;;
38358;SDS011;42072;48.044;14.416;2023-03-14T07:23:30;4.22;;;1.08;;
38358;SDS011;42072;48.044;14.416;2023-03-14T07:25:57;1.20;;;0.80;;
38358;SDS011;42072;48.044;14.416;2023-03-14T07:28:25;1.55;;;0.85;;
38358;SDS011;42072;48.044;14.416;2023-03-14T07:30:53;3.92;;;2.85;;
38358;SDS011;42072;48.044;14.416;2023-03-14T07:33:21;1.65;;;1.10;;
38358;SDS011;42072;48.044;14.416;2023-03-14T07:35:49;2.35;;;1.30;;
38358;SDS011;42072;48.044;14.416;2023-03-14T07:38:17;2.78;;;1.15;;
38358;SDS011;42072;48.044;14.416;2023-03-14T07:40:48;3.17;;;1.33;;
38358;SDS011;42072;48.044;14.416;2023-03-14T07:43:15;1.55;;;1.00;;
38358;SDS011;42072;48.044;14.416;2023-03-14T07:45:45;3.25;;;1.65;;
38358;SDS011;42072;48.044;14.416;2023-03-14T07:48:16;2.22;;;1.15;;
38358;SDS011;42072;48.044;14.416;2023-03-14T07:50:43;7.15;;;5.00;;
38358;SDS011;42072;48.044;14.416;2023-03-14T07:53:14;1.55;;;0.60;;
38358;SDS011;42072;48.044;14.416;2023-03-14T07:55:41;1.83;;;1.38;;
38358;SDS011;42072;48.044;14.416;2023-03-14T07:58:08;3.45;;;1.60;;
38358;SDS011;42072;48.044;14.416;2023-03-14T08:00:36;2.50;;;1.85;;
38358;SDS011;42072;48.044;14.416;2023-03-14T08:03:03;2.75;;;1.65;;
38358;SDS011;42072;48.044;14.416;2023-03-14T08:05:30;2.83;;;1.70;;
38358;SDS011;42072;48.044;14.416;2023-03-14T08:08:00;1.85;;;1.20;;
38358;SDS011;42072;48.044;14.416;2023-03-14T08:10:27;3.50;;;1.10;;
38358;SDS011;42072;48.044;14.416;2023-03-14T08:12:55;1.95;;;1.10;;
38358;SDS011;42072;48.044;14.416;2023-03-14T08:15:23;1.83;;;1.00;;
38358;SDS011;42072;48.044;14.416;2023-03-14T08:17:51;2.80;;;1.13;;
38358;SDS011;42072;48.044;14.416;2023-03-14T08:20:21;1.30;;;0.75;;
38358;SDS011;42072;48.044;14.416;2023-03-14T08:22:49;2.05;;;0.70;;
38358;SDS011;42072;48.044;14.416;2023-03-14T08:25:16;3.60;;;0.90;;
38358;SDS011;42072;48.044;14.416;2023-03-14T08:27:43;0.85;;;0.55;;
38358;SDS011;42072;48.044;14.416;2023-03-14T08:30:11;1.45;;;0.80;;
38358;SDS011;42072;48.044;14.416;2023-03-14T08:32:40;2.53;;;0.98;;
38358;SDS011;42072;48.044;14.416;2023-03-14T08:35:08;1.98;;;1.08;;
38358;SDS011;42072;48.044;14.416;2023-03-14T08:37:36;2.03;;;0.98;;
38358;SDS011;42072;48.044;14.416;2023-03-14T08:40:04;2.72;;;0.98;;
38358;SDS011;42072;48.044;14.416;2023-03-14T08:42:36;1.85;;;1.25;;
38358;SDS011;42072;48.044;14.416;2023-03-14T08:45:05;2.47;;;1.23;;
38358;SDS011;42072;48.044;14.416;2023-03-14T08:47:33;4.07;;;1.80;;
38358;SDS011;42072;48.044;14.416;2023-03-14T08:50:00;3.63;;;1.27;;
38358;SDS011;42072;48.044;14.416;2023-03-14T08:52:27;1.25;;;0.82;;
38358;SDS011;42072;48.044;14.416;2023-03-14T08:54:54;2.42;;;1.70;;
38358;SDS011;42072;48.044;14.416;2023-03-14T08:57:22;1.77;;;1.27;;
38358;SDS011;42072;48.044;14.416;2023-03-14T08:59:54;2.05;;;1.33;;
38358;SDS011;42072;48.044;14.416;2023-03-14T09:02:22;2.33;;;1.05;;
38358;SDS011;42072;48.044;14.416;2023-03-14T09:04:50;3.08;;;1.25;;
38358;SDS011;42072;48.044;14.416;2023-03-14T09:07:19;2.30;;;1.20;;
38358;SDS011;42072;48.044;14.416;2023-03-14T09:09:46;3.05;;;1.88;;
38358;SDS011;42072;48.044;14.416;2023-03-14T09:12:13;1.95;;;1.17;;
38358;SDS011;42072;48.044;14.416;2023-03-14T09:14:40;4.82;;;1.55;;
38358;SDS011;42072;48.044;14.416;2023-03-14T09:17:07;3.72;;;1.80;;
38358;SDS011;42072;48.044;14.416;2023-03-14T09:19:35;4.28;;;1.70;;
38358;SDS011;42072;48.044;14.416;2023-03-14T09:22:02;5.72;;;3.13;;
38358;SDS011;42072;48.044;14.416;2023-03-14T09:24:29;6.60;;;4.13;;
38358;SDS011;42072;48.044;14.416;2023-03-14T09:26:57;3.80;;;2.42;;
38358;SDS011;42072;48.044;14.416;2023-03-14T09:29:24;4.72;;;2.55;;
38358;SDS011;42072;48.044;14.416;2023-03-14T09:31:51;2.88;;;1.80;;
38358;SDS011;42072;48.044;14.416;2023-03-14T09:34:19;4.53;;;1.95;;
38358;SDS011;42072;48.044;14.416;2023-03-14T09:36:46;5.20;;;1.63;;
38358;SDS011;42072;48.044;14.416;2023-03-14T09:39:13;2.05;;;1.42;;
38358;SDS011;42072;48.044;14.416;2023-03-14T09:41:41;3.60;;;2.30;;
38358;SDS011;42072;48.044;14.416;2023-03-14T09:44:21;1.63;;;0.98;;
38358;SDS011;42072;48.044;14.416;2023-03-14T09:46:54;10.52;;;6.63;;
38358;SDS011;42072;48.044;14.416;2023-03-14T09:49:32;3.97;;;1.38;;
38358;SDS011;42072;48.044;14.416;2023-03-14T09:52:02;2.58;;;1.00;;
38358;SDS011;42072;48.044;14.416;2023-03-14T09:54:44;2.08;;;1.30;;
38358;SDS011;42072;48.044;14.416;2023-03-14T09:57:34;2.30;;;1.58;;
38358;SDS011;42072;48.044;14.416;2023-03-14T10:00:05;3.13;;;1.30;;
38358;SDS011;42072;48.044;14.416;2023-03-14T10:02:52;2.45;;;1.10;;
38358;SDS011;42072;48.044;14.416;2023-03-14T10:05:22;3.88;;;1.10;;
38358;SDS011;42072;48.044;14.416;2023-03-14T10:07:51;2.83;;;1.30;;
38358;SDS011;42072;48.044;14.416;2023-03-14T10:10:19;5.85;;;1.77;;
38358;SDS011;42072;48.044;14.416;2023-03-14T10:12:56;6.18;;;2.30;;
38358;SDS011;42072;48.044;14.416;2023-03-14T10:15:26;3.53;;;1.70;;
38358;SDS011;42072;48.044;14.416;2023-03-14T10:17:59;2.90;;;1.58;;
38358;SDS011;42072;48.044;14.416;2023-03-14T10:25:39;3.70;;;1.50;;
38358;SDS011;42072;48.044;14.416;2023-03-14T10:28:25;2.08;;;1.00;;
38358;SDS011;42072;48.044;14.416;2023-03-14T10:30:57;2.03;;;1.02;;
38358;SDS011;42072;48.044;14.416;2023-03-14T10:33:43;0.68;;;0.60;;
38358;SDS011;42072;48.044;14.416;2023-03-14T10:36:33;1.23;;;0.77;;
38358;SDS011;42072;48.044;14.416;2023-03-14T10:39:16;1.63;;;0.70;;
38358;SDS011;42072;48.044;14.416;2023-03-14T10:42:18;0.52;;;0.52;;
38358;SDS011;42072;48.044;14.416;2023-03-14T10:44:50;1.27;;;0.70;;
38358;SDS011;42072;48.044;14.416;2023-03-14T10:47:23;1.42;;;0.80;;
38358;SDS011;42072;48.044;14.416;2023-03-14T10:49:51;1.52;;;0.90;;
38358;SDS011;42072;48.044;14.416;2023-03-14T10:55:09;2.83;;;1.50;;
38358;SDS011;42072;48.044;14.416;2023-03-14T10:57:41;2.40;;;1.45;;
38358;SDS011;42072;48.044;14.416;2023-03-14T11:00:17;3.40;;;1.45;;
38358;SDS011;42072;48.044;14.416;2023-03-14T11:05:27;2.33;;;1.50;;
38358;SDS011;42072;48.044;14.416;2023-03-14T11:10:45;1.90;;;1.08;;
38358;SDS011;42072;48.044;14.416;2023-03-14T11:13:24;0.90;;;0.50;;
38358;SDS011;42072;48.044;14.416;2023-03-14T11:21:22;5.35;;;2.40;;
38358;SDS011;42072;48.044;14.416;2023-03-14T11:26:47;7.38;;;3.13;;
38358;SDS011;42072;48.044;14.416;2023-03-14T11:32:33;8.40;;;3.72;;
38358;SDS011;42072;48.044;14.416;2023-03-14T11:38:02;2.22;;;2.00;;
38358;SDS011;42072;48.044;14.416;2023-03-14T11:40:43;1.77;;;1.65;;
38358;SDS011;42072;48.044;14.416;2023-03-14T11:45:56;1.40;;;1.30;;
38358;SDS011;42072;48.044;14.416;2023-03-14T11:48:43;1.80;;;1.40;;
38358;SDS011;42072;48.044;14.416;2023-03-14T11:51:21;1.23;;;1.00;;
38358;SDS011;42072;48.044;14.416;2023-03-14T11:54:00;3.00;;;1.17;;
38358;SDS011;42072;48.044;14.416;2023-03-14T11:57:05;1.00;;;0.82;;
38358;SDS011;42072;48.044;14.416;2023-03-14T11:59:29;1.63;;;0.60;;
38358;SDS011;42072;48.044;14.416;2023-03-14T12:10:37;0.93;;;0.50;;
38358;SDS011;42072;48.044;14.416;2023-03-14T12:13:08;0.85;;;0.50;;
38358;SDS011;42072;48.044;14.416;2023-03-14T12:15:40;0.63;;;0.63;;
38358;SDS011;42072;48.044;14.416;2023-03-14T12:18:21;1.15;;;1.00;;
38358;SDS011;42072;48.044;14.416;2023-03-14T12:20:56;4.15;;;1.00;;
38358;SDS011;42072;48.044;14.416;2023-03-14T12:23:27;1.13;;;0.88;;
38358;SDS011;42072;48.044;14.416;2023-03-14T12:26:43;2.40;;;1.40;;
38358;SDS011;42072;48.044;14.416;2023-03-14T12:29:16;3.17;;;1.40;;
38358;SDS011;42072;48.044;14.416;2023-03-14T12:31:45;5.00;;;2.30;;
38358;SDS011;42072;48.044;14.416;2023-03-14T12:39:19;5.28;;;2.03;;
38358;SDS011;42072;48.044;14.416;2023-03-14T12:42:35;6.93;;;2.72;;
38358;SDS011;42072;48.044;14.416;2023-03-14T12:45:27;4.07;;;1.75;;
38358;SDS011;42072;48.044;14.416;2023-03-14T12:48:00;1.98;;;1.30;;
38358;SDS011;42072;48.044;14.416;2023-03-14T12:50:55;1.20;;;0.80;;
38358;SDS011;42072;48.044;14.416;2023-03-14T12:58:47;1.83;;;1.30;;
38358;SDS011;42072;48.044;14.416;2023-03-14T13:01:54;2.33;;;1.88;;
38358;SDS011;42072;48.044;14.416;2023-03-14T13:04:29;2.88;;;2.13;;
38358;SDS011;42072;48.044;14.416;2023-03-14T13:07:10;2.88;;;1.60;;
38358;SDS011;42072;48.044;14.416;2023-03-14T13:09:50;1.98;;;1.50;;
38358;SDS011;42072;48.044;14.416;2023-03-14T13:12:25;3.30;;;1.25;;
38358;SDS011;42072;48.044;14.416;2023-03-14T13:14:58;2.85;;;1.20;;
38358;SDS011;42072;48.044;14.416;2023-03-14T13:17:29;0.80;;;0.80;;
38358;SDS011;42072;48.044;14.416;2023-03-14T13:20:04;1.10;;;0.88;;
38358;SDS011;42072;48.044;14.416;2023-03-14T13:22:39;1.20;;;0.70;;
38358;SDS011;42072;48.044;14.416;2023-03-14T13:27:40;1.35;;;0.90;;
38358;SDS011;42072;48.044;14.416;2023-03-14T13:30:15;0.82;;;0.63;;
38358;SDS011;42072;48.044;14.416;2023-03-14T13:32:48;1.25;;;0.60;;
38358;SDS011;42072;48.044;14.416;2023-03-14T13:35:18;0.93;;;0.60;;
38358;SDS011;42072;48.044;14.416;2023-03-14T13:37:51;0.45;;;0.45;;
38358;SDS011;42072;48.044;14.416;2023-03-14T13:40:36;0.75;;;0.50;;
38358;SDS011;42072;48.044;14.416;2023-03-14T13:43:14;0.77;;;0.60;;
38358;SDS011;42072;48.044;14.416;2023-03-14T13:45:45;3.25;;;2.15;;
38358;SDS011;42072;48.044;14.416;2023-03-14T13:48:14;2.30;;;1.70;;
38358;SDS011;42072;48.044;14.416;2023-03-14T13:50:50;0.95;;;0.85;;
38358;SDS011;42072;48.044;14.416;2023-03-14T13:53:29;0.93;;;0.50;;
38358;SDS011;42072;48.044;14.416;2023-03-14T13:56:00;1.77;;;1.48;;
38358;SDS011;42072;48.044;14.416;2023-03-14T13:58:30;2.80;;;1.60;;
38358;SDS011;42072;48.044;14.416;2023-03-14T14:01:02;1.85;;;1.13;;
38358;SDS011;42072;48.044;14.416;2023-03-14T14:03:39;1.02;;;0.70;;
38358;SDS011;42072;48.044;14.416;2023-03-14T14:09:15;1.23;;;0.73;;
38358;SDS011;42072;48.044;14.416;2023-03-14T14:17:13;3.30;;;1.85;;
38358;SDS011;42072;48.044;14.416;2023-03-14T14:19:44;2.92;;;1.80;;
38358;SDS011;42072;48.044;14.416;2023-03-14T14:22:13;4.68;;;2.67;;
38358;SDS011;42072;48.044;14.416;2023-03-14T14:24:40;4.72;;;2.65;;
38358;SDS011;42072;48.044;14.416;2023-03-14T14:27:15;7.18;;;4.35;;
38358;SDS011;42072;48.044;14.416;2023-03-14T14:29:44;7.53;;;3.78;;
38358;SDS011;42072;48.044;14.416;2023-03-14T14:32:33;4.47;;;2.90;;
38358;SDS011;42072;48.044;14.416;2023-03-14T14:35:05;6.13;;;2.78;;
38358;SDS011;42072;48.044;14.416;2023-03-14T14:37:43;6.22;;;3.25;;
38358;SDS011;42072;48.044;14.416;2023-03-14T14:40:16;3.15;;;1.65;;
38358;SDS011;42072;48.044;14.416;2023-03-14T14:42:47;5.90;;;3.45;;
38358;SDS011;42072;48.044;14.416;2023-03-14T14:45:17;3.40;;;1.95;;
38358;SDS011;42072;48.044;14.416;2023-03-14T14:50:20;1.30;;;1.00;;
38358;SDS011;42072;48.044;14.416;2023-03-14T14:52:58;1.90;;;0.93;;
38358;SDS011;42072;48.044;14.416;2023-03-14T14:55:34;1.48;;;0.90;;
38358;SDS011;42072;48.044;14.416;2023-03-14T14:58:40;2.15;;;1.08;;
38358;SDS011;42072;48.044;14.416;2023-03-14T15:03:35;2.08;;;1.10;;
38358;SDS011;42072;48.044;14.416;2023-03-14T15:06:03;1.95;;;1.02;;
38358;SDS011;42072;48.044;14.416;2023-03-14T15:08:31;2.22;;;0.90;;
38358;SDS011;42072;48.044;14.416;2023-03-14T15:10:58;1.48;;;0.88;;
38358;SDS011;42072;48.044;14.416;2023-03-14T15:13:25;1.05;;;0.77;;
38358;SDS011;42072;48.044;14.416;2023-03-14T15:15:53;3.55;;;1.70;;
38358;SDS011;42072;48.044;14.416;2023-03-14T15:18:23;4.18;;;1.60;;
38358;SDS011;42072;48.044;14.416;2023-03-14T15:20:55;3.00;;;2.22;;
38358;SDS011;42072;48.044;14.416;2023-03-14T15:23:22;4.00;;;1.95;;
38358;SDS011;42072;48.044;14.416;2023-03-14T15:25:50;4.13;;;1.60;;
38358;SDS011;42072;48.044;14.416;2023-03-14T15:28:22;1.75;;;1.33;;
38358;SDS011;42072;48.044;14.416;2023-03-14T15:30:52;3.17;;;1.88;;
38358;SDS011;42072;48.044;14.416;2023-03-14T15:33:21;3.67;;;1.60;;
38358;SDS011;42072;48.044;14.416;2023-03-14T15:35:50;1.67;;;1.25;;
38358;SDS011;42072;48.044;14.416;2023-03-14T15:38:18;2.72;;;1.73;;
38358;SDS011;42072;48.044;14.416;2023-03-14T15:40:50;2.72;;;1.90;;
38358;SDS011;42072;48.044;14.416;2023-03-14T15:43:18;1.80;;;1.45;;
38358;SDS011;42072;48.044;14.416;2023-03-14T15:45:45;3.95;;;1.65;;
38358;SDS011;42072;48.044;14.416;2023-03-14T15:48:17;7.03;;;5.30;;
38358;SDS011;42072;48.044;14.416;2023-03-14T15:50:47;2.28;;;2.08;;
38358;SDS011;42072;48.044;14.416;2023-03-14T15:53:14;2.20;;;1.90;;
38358;SDS011;42072;48.044;14.416;2023-03-14T15:55:42;5.57;;;2.30;;
38358;SDS011;42072;48.044;14.416;2023-03-14T15:58:11;3.28;;;1.75;;
38358;SDS011;42072;48.044;14.416;2023-03-14T16:00:46;2.40;;;1.48;;
38358;SDS011;42072;48.044;14.416;2023-03-14T16:03:15;3.80;;;1.50;;
38358;SDS011;42072;48.044;14.416;2023-03-14T16:05:43;2.83;;;1.63;;
38358;SDS011;42072;48.044;14.416;2023-03-14T16:08:10;1.50;;;1.20;;
38358;SDS011;42072;48.044;14.416;2023-03-14T16:10:37;1.50;;;1.38;;